createdAt,value
2022-11-24T00:01:22.510Z,99838.30
2022-11-24T00:03:55.512Z,99843.91
2022-11-24T00:06:24.223Z,99847.34
2022-11-24T00:08:52.987Z,99846.63
2022-11-24T00:11:32.141Z,99845.98
2022-11-24T00:14:00.533Z,99838.13
2022-11-24T00:16:33.808Z,99835.65
2022-11-24T00:19:03.846Z,99840.80
2022-11-24T00:21:32.006Z,99843.83
2022-11-24T00:24:00.342Z,99840.34
2022-11-24T00:26:33.498Z,99843.00
2022-11-24T00:29:03.469Z,99840.84
2022-11-24T00:31:35.807Z,99838.85
2022-11-24T00:34:06.546Z,99842.80
2022-11-24T00:36:36.163Z,99846.00
2022-11-24T00:39:11.045Z,99846.00
2022-11-24T00:41:39.650Z,99843.98
2022-11-24T00:44:08.163Z,99843.73
2022-11-24T00:46:36.136Z,99850.48
2022-11-24T00:49:03.918Z,99859.33
2022-11-24T00:51:31.874Z,99848.30
2022-11-24T00:54:01.095Z,99844.44
2022-11-24T00:56:30.044Z,99841.03
2022-11-24T00:58:58.163Z,99837.40
2022-11-24T01:01:28.550Z,99839.52
2022-11-24T01:03:58.144Z,99836.46
2022-11-24T01:06:27.129Z,99835.09
2022-11-24T01:08:56.910Z,99838.81
2022-11-24T01:11:29.579Z,99840.41
2022-11-24T01:13:59.184Z,99842.52
2022-11-24T01:16:34.860Z,99842.46
2022-11-24T01:19:03.852Z,99845.79
2022-11-24T01:21:31.619Z,99846.98
2022-11-24T01:23:59.394Z,99847.10
2022-11-24T01:26:27.200Z,99843.65
2022-11-24T01:28:56.730Z,99844.18
2022-11-24T01:31:25.838Z,99846.94
2022-11-24T01:33:54.501Z,99845.90
2022-11-24T01:36:23.086Z,99842.58
2022-11-24T01:38:50.859Z,99846.41
2022-11-24T01:41:24.393Z,99847.59
2022-11-24T01:43:54.123Z,99845.13
2022-11-24T01:46:38.831Z,99847.68
2022-11-24T01:49:20.044Z,99849.93
2022-11-24T01:51:53.579Z,99849.86
2022-11-24T01:54:32.722Z,99850.43
2022-11-24T01:57:06.256Z,99850.15
2022-11-24T01:59:33.958Z,99849.34
2022-11-24T02:02:02.149Z,99847.85
2022-11-24T02:04:33.286Z,99849.15
2022-11-24T02:07:03.431Z,99848.11
2022-11-24T02:10:03.637Z,99849.84
2022-11-24T02:12:32.551Z,99849.61
2022-11-24T02:15:00.359Z,99848.86
2022-11-24T02:17:28.014Z,99848.67
2022-11-24T02:19:58.433Z,99846.71
2022-11-24T02:22:50.859Z,99848.38
2022-11-24T02:25:30.394Z,99848.16
2022-11-24T02:28:00.144Z,99846.20
2022-11-24T02:30:28.261Z,99848.13
2022-11-24T02:32:56.174Z,99848.54
2022-11-24T02:35:26.548Z,99841.48
2022-11-24T02:37:54.514Z,99840.31
2022-11-24T02:40:25.706Z,99837.21
2022-11-24T02:42:58.495Z,99838.10
2022-11-24T02:45:27.438Z,99837.73
2022-11-24T02:47:55.099Z,99838.85
2022-11-24T02:50:23.090Z,99835.00
2022-11-24T02:52:50.748Z,99839.48
2022-11-24T02:55:18.881Z,99835.54
2022-11-24T02:57:47.103Z,99839.02
2022-11-24T03:00:15.640Z,99838.52
2022-11-24T03:02:43.316Z,99836.29
2022-11-24T03:05:13.046Z,99836.52
2022-11-24T03:07:40.996Z,99841.36
2022-11-24T03:10:09.097Z,99842.56
2022-11-24T03:12:36.903Z,99844.66
2022-11-24T03:15:06.277Z,99842.48
2022-11-24T03:17:34.069Z,99842.19
2022-11-24T03:20:04.941Z,99840.14
2022-11-24T03:22:33.620Z,99841.40
2022-11-24T03:25:01.292Z,99839.02
2022-11-24T03:27:30.465Z,99844.09
2022-11-24T03:29:58.152Z,99840.80
2022-11-24T03:32:25.858Z,99846.77
2022-11-24T03:34:53.499Z,99842.04
2022-11-24T03:37:22.536Z,99846.26
2022-11-24T03:39:50.296Z,99844.80
2022-11-24T03:42:17.975Z,99848.27
2022-11-24T03:44:45.729Z,99851.43
2022-11-24T03:47:13.400Z,99857.13
2022-11-24T03:49:41.513Z,99862.98
2022-11-24T03:52:09.703Z,99861.91
2022-11-24T03:54:37.397Z,99857.61
2022-11-24T03:57:05.077Z,99863.33
2022-11-24T03:59:33.061Z,99864.96
2022-11-24T04:02:00.760Z,99866.46
2022-11-24T04:04:28.633Z,99861.55
2022-11-24T04:06:56.487Z,99863.27
2022-11-24T04:09:24.129Z,99864.61
2022-11-24T04:12:10.365Z,99863.92
2022-11-24T04:14:38.110Z,99861.05
2022-11-24T04:17:05.944Z,99857.00
2022-11-24T04:19:33.590Z,99855.63
2022-11-24T04:22:01.219Z,99848.68
2022-11-24T04:24:28.954Z,99850.50
2022-11-24T04:26:56.723Z,99855.05
2022-11-24T04:29:24.439Z,99859.54
2022-11-24T04:31:52.699Z,99858.50
2022-11-24T04:34:20.549Z,99863.98
2022-11-24T04:36:48.244Z,99862.54
2022-11-24T04:39:24.378Z,99872.44
2022-11-24T04:41:53.876Z,99878.61
2022-11-24T04:44:21.641Z,99881.63
2022-11-24T04:46:49.372Z,99880.52
2022-11-24T04:49:17.530Z,99886.04
2022-11-24T04:51:45.355Z,99883.94
2022-11-24T04:54:14.238Z,99886.32
2022-11-24T04:56:42.653Z,99885.89
2022-11-24T04:59:14.978Z,99886.20
2022-11-24T05:01:44.317Z,99888.91
2022-11-24T05:04:14.219Z,99888.27
2022-11-24T05:06:42.408Z,99890.11
2022-11-24T05:09:17.646Z,99892.48
2022-11-24T05:11:45.347Z,99895.06
2022-11-24T05:14:13.046Z,99900.15
2022-11-24T05:16:40.849Z,99902.50
2022-11-24T05:19:08.582Z,99897.23
2022-11-24T05:21:36.874Z,99903.10
2022-11-24T05:24:04.960Z,99900.58
2022-11-24T05:26:32.846Z,99901.11
2022-11-24T05:29:00.632Z,99906.22
2022-11-24T05:31:28.372Z,99904.08
2022-11-24T05:37:09.421Z,99906.04
2022-11-24T05:39:38.020Z,99913.25
2022-11-24T05:42:26.409Z,99917.06
2022-11-24T05:44:54.112Z,99921.95
2022-11-24T05:47:22.431Z,99923.93
2022-11-24T05:49:50.077Z,99918.25
2022-11-24T05:52:18.242Z,99920.35
2022-11-24T05:54:45.912Z,99917.36
2022-11-24T05:57:13.698Z,99919.58
2022-11-24T05:59:41.358Z,99923.23
2022-11-24T06:02:10.105Z,99926.43
2022-11-24T06:04:38.294Z,99924.04
2022-11-24T06:07:11.650Z,99920.33
2022-11-24T06:09:41.582Z,99926.09
2022-11-24T06:12:10.282Z,99927.52
2022-11-24T06:14:38.098Z,99931.31
2022-11-24T06:17:06.617Z,99935.93
2022-11-24T06:19:37.467Z,99936.70
2022-11-24T06:22:09.337Z,99937.89
2022-11-24T06:24:37.226Z,99936.16
2022-11-24T06:27:05.009Z,99938.30
2022-11-24T06:29:32.658Z,99938.65
2022-11-24T06:32:00.456Z,99942.10
2022-11-24T06:34:28.332Z,99945.46
2022-11-24T06:36:56.017Z,99945.81
2022-11-24T06:39:23.828Z,99941.07
2022-11-24T06:41:52.356Z,99943.41
2022-11-24T06:44:20.244Z,99942.23
2022-11-24T06:46:48.178Z,99945.39
2022-11-24T06:49:16.940Z,99949.52
2022-11-24T06:51:44.689Z,99956.69
2022-11-24T06:54:17.012Z,99954.61
2022-11-24T06:56:44.744Z,99949.80
2022-11-24T06:59:20.022Z,99949.38
2022-11-24T07:01:47.820Z,99944.19
2022-11-24T07:04:16.773Z,99949.70
2022-11-24T07:06:44.574Z,99950.08
2022-11-24T07:09:14.906Z,99950.08
2022-11-24T07:11:42.666Z,99954.05
2022-11-24T07:14:10.629Z,99947.39
2022-11-24T07:16:39.014Z,99945.91
2022-11-24T07:19:06.660Z,99953.20
2022-11-24T07:21:34.307Z,99952.59
2022-11-24T07:24:02.046Z,99956.56
2022-11-24T07:26:29.958Z,99962.00
2022-11-24T07:28:57.813Z,99966.30
2022-11-24T07:31:25.561Z,99967.75
2022-11-24T07:33:55.252Z,99967.15
2022-11-24T07:36:23.618Z,99966.33
2022-11-24T07:38:51.485Z,99965.66
2022-11-24T07:41:20.224Z,99969.21
2022-11-24T07:43:48.685Z,99970.75
2022-11-24T07:46:18.017Z,99966.65
2022-11-24T07:48:46.707Z,99966.92
2022-11-24T07:51:14.771Z,99971.70
2022-11-24T07:53:42.483Z,99974.23
2022-11-24T07:56:10.334Z,99974.11
2022-11-24T07:58:38.333Z,99973.30
2022-11-24T08:01:11.355Z,99978.98
2022-11-24T08:03:39.683Z,99979.52
2022-11-24T08:06:24.080Z,99979.08
2022-11-24T08:08:55.025Z,99974.52
2022-11-24T08:11:23.233Z,99978.48
2022-11-24T08:13:51.211Z,99982.01
2022-11-24T08:16:20.177Z,99990.00
2022-11-24T08:18:53.216Z,99985.47
2022-11-24T08:21:23.255Z,99983.49
2022-11-24T08:23:56.162Z,99987.65
2022-11-24T08:26:25.349Z,99991.94
2022-11-24T08:28:58.264Z,99989.59
2022-11-24T08:31:33.340Z,99987.00
2022-11-24T08:34:04.038Z,99985.84
2022-11-24T08:36:33.112Z,99988.85
2022-11-24T08:39:01.924Z,99991.70
2022-11-24T08:41:30.807Z,99994.30
2022-11-24T08:43:58.796Z,99996.36
2022-11-24T08:46:26.511Z,100000.42
2022-11-24T08:48:55.247Z,99997.22
2022-11-24T08:51:26.016Z,99995.82
2022-11-24T08:53:55.854Z,99996.08
2022-11-24T08:56:24.475Z,99995.23
2022-11-24T08:58:53.531Z,99996.88
2022-11-24T09:01:22.059Z,99998.77
2022-11-24T09:03:51.386Z,99999.96
2022-11-24T09:06:25.133Z,99999.14
2022-11-24T09:08:57.202Z,99996.27
2022-11-24T09:11:26.269Z,100005.43
2022-11-24T09:13:55.085Z,100003.06
2022-11-24T09:16:29.054Z,100005.02
2022-11-24T09:18:59.746Z,100009.83
2022-11-24T09:21:28.433Z,100012.48
2022-11-24T09:23:56.465Z,100006.67
2022-11-24T09:26:27.748Z,100007.58
2022-11-24T09:28:57.355Z,100016.78
2022-11-24T09:31:28.192Z,100020.09
2022-11-24T09:33:56.773Z,100018.11
2022-11-24T09:36:24.818Z,100016.19
2022-11-24T09:38:52.624Z,100019.47
2022-11-24T09:41:23.124Z,100025.09
2022-11-24T09:44:09.126Z,100025.24
2022-11-24T09:46:50.431Z,100028.02
2022-11-24T09:49:27.565Z,100029.02
2022-11-24T09:51:57.026Z,100031.98
2022-11-24T09:54:29.902Z,100034.59
2022-11-24T09:57:00.913Z,100029.05
2022-11-24T09:59:28.745Z,100034.00
2022-11-24T10:01:56.655Z,100033.21
2022-11-24T10:04:52.493Z,100032.92
2022-11-24T10:07:48.667Z,100036.69
2022-11-24T10:10:25.160Z,100034.61
2022-11-24T10:13:31.371Z,100037.05
2022-11-24T10:16:04.634Z,100035.98
2022-11-24T10:19:14.587Z,100040.83
2022-11-24T10:21:54.461Z,100036.66
2022-11-24T10:24:44.183Z,100032.42
2022-11-24T10:27:46.514Z,100038.23
2022-11-24T10:30:18.383Z,100035.88
2022-11-24T10:32:55.635Z,100033.20
2022-11-24T10:35:46.992Z,100031.98
2022-11-24T10:38:20.782Z,100034.62
2022-11-24T10:40:58.794Z,100030.41
2022-11-24T10:43:28.612Z,100030.77
2022-11-24T10:46:27.206Z,100040.83
2022-11-24T10:49:04.863Z,100038.77
2022-11-24T10:51:41.498Z,100040.41
2022-11-24T10:54:19.620Z,100043.05
2022-11-24T10:56:50.912Z,100044.69
2022-11-24T10:59:21.537Z,100043.05
2022-11-24T11:01:49.462Z,100044.31
2022-11-24T11:04:24.873Z,100040.70
2022-11-24T11:06:52.719Z,100041.33
2022-11-24T11:09:22.139Z,100038.20
2022-11-24T11:11:53.487Z,100037.23
2022-11-24T11:14:33.225Z,100034.94
2022-11-24T11:17:01.574Z,100038.42
2022-11-24T11:19:49.805Z,100034.89
2022-11-24T11:34:14.405Z,100045.41
2022-11-24T11:36:51.691Z,100048.38
2022-11-24T11:39:35.270Z,100049.56
2022-11-24T11:42:31.383Z,100052.65
2022-11-24T11:45:10.547Z,100056.52
2022-11-24T11:47:53.513Z,100060.30
2022-11-24T11:50:27.651Z,100064.63
2022-11-24T11:53:19.826Z,100068.50
2022-11-24T11:55:57.420Z,100072.05
2022-11-24T11:58:59.369Z,100067.39
2022-11-24T12:01:52.430Z,100069.09
2022-11-24T12:04:33.980Z,100071.72
2022-11-24T12:07:01.784Z,100068.39
2022-11-24T12:09:41.644Z,100066.94
2022-11-24T12:12:31.240Z,100063.84
2022-11-24T12:15:31.131Z,100063.45
2022-11-24T12:18:48.981Z,100059.14
2022-11-24T12:21:27.770Z,100061.84
2022-11-24T12:24:13.970Z,100058.70
2022-11-24T12:26:57.019Z,100060.25
2022-11-24T12:29:52.636Z,100055.42
2022-11-24T12:32:39.109Z,100056.21
2022-11-24T12:35:06.818Z,100056.61
2022-11-24T12:37:53.432Z,100060.07
2022-11-24T12:40:55.271Z,100061.18
2022-11-24T12:43:34.859Z,100052.95
2022-11-24T12:46:20.909Z,100053.09
2022-11-24T12:49:07.244Z,100053.30
2022-11-24T12:51:42.637Z,100053.59
2022-11-24T12:54:14.490Z,100055.60
2022-11-24T12:57:07.233Z,100055.36
2022-11-24T12:59:59.805Z,100061.05
2022-11-24T13:02:52.741Z,100061.75
2022-11-24T13:05:31.756Z,100065.16
2022-11-24T13:08:03.285Z,100061.84
2022-11-24T13:10:58.173Z,100061.23
2022-11-24T13:14:04.767Z,100056.98
2022-11-24T13:16:37.198Z,100061.08
2022-11-24T13:19:20.904Z,100057.63
2022-11-24T13:21:59.616Z,100054.92
2022-11-24T13:24:30.942Z,100055.17
2022-11-24T13:27:14.362Z,100052.84
2022-11-24T13:29:44.714Z,100059.45
2022-11-24T13:32:12.997Z,100061.45
2022-11-24T13:34:40.832Z,100066.91
2022-11-24T13:37:33.655Z,100065.46
2022-11-24T13:40:13.211Z,100064.23
2022-11-24T13:43:10.375Z,100065.61
2022-11-24T13:45:49.151Z,100061.23
2022-11-24T13:48:20.075Z,100059.36
2022-11-24T13:50:51.770Z,100062.76
2022-11-24T13:53:42.150Z,100062.04
2022-11-24T13:56:21.786Z,100066.23
2022-11-24T13:59:27.446Z,100068.44
2022-11-24T14:01:58.654Z,100069.33
2022-11-24T14:04:31.002Z,100067.48
2022-11-24T14:07:08.183Z,100072.77
2022-11-24T14:09:47.710Z,100072.77
2022-11-24T14:12:15.451Z,100073.17
2022-11-24T14:14:46.098Z,100077.40
2022-11-24T14:17:16.309Z,100077.83
2022-11-24T14:19:46.908Z,100079.48
2022-11-24T14:25:32.437Z,100090.30
2022-11-24T14:28:00.601Z,100095.58
2022-11-24T14:30:28.727Z,100100.63
2022-11-24T14:32:58.371Z,100101.05
2022-11-24T14:35:28.034Z,100100.20
2022-11-24T14:37:56.507Z,100099.71
2022-11-24T14:40:50.652Z,100104.19
2022-11-24T14:43:30.091Z,100104.64
2022-11-24T14:46:14.617Z,100107.08
2022-11-24T14:48:48.925Z,100110.69
2022-11-24T14:51:42.732Z,100114.61
2022-11-24T14:54:21.591Z,100116.98
2022-11-24T14:57:01.795Z,100120.19
2022-11-24T14:59:32.122Z,100124.17
2022-11-24T15:12:39.488Z,100133.64
2022-11-24T15:15:13.359Z,100134.13
2022-11-24T15:17:47.602Z,100133.23
2022-11-24T15:20:25.274Z,100134.95
2022-11-24T15:23:24.598Z,100138.84
2022-11-24T15:26:12.875Z,100143.56
2022-11-24T15:28:41.309Z,100144.24
2022-11-24T15:31:14.185Z,100144.74
2022-11-24T15:33:42.324Z,100150.10
2022-11-24T15:36:12.407Z,100152.84
2022-11-24T15:38:40.079Z,100158.65
2022-11-24T15:41:27.629Z,100159.98
2022-11-24T15:43:59.253Z,100160.16
2022-11-24T16:02:04.627Z,100163.97
2022-11-24T16:04:33.669Z,100169.44
2022-11-24T16:07:01.690Z,100166.43
2022-11-24T16:09:29.450Z,100169.05
2022-11-24T16:11:57.153Z,100171.38
2022-11-24T16:14:24.892Z,100171.36
2022-11-24T16:16:52.672Z,100174.17
2022-11-24T16:19:20.606Z,100181.88
2022-11-24T16:21:48.771Z,100187.73
2022-11-24T16:24:16.641Z,100188.18
2022-11-24T16:26:44.539Z,100194.27
2022-11-24T16:29:12.261Z,100194.20
2022-11-24T16:38:16.550Z,100190.77
2022-11-24T16:40:46.199Z,100198.48
2022-11-24T16:43:14.014Z,100198.21
2022-11-24T16:45:45.357Z,100201.66
2022-11-24T16:48:13.542Z,100208.64
2022-11-24T16:50:43.358Z,100214.55
2022-11-24T16:53:11.424Z,100217.00
2022-11-24T16:55:39.312Z,100221.23
2022-11-24T16:58:07.269Z,100219.11
2022-11-24T17:00:35.047Z,100220.37
2022-11-24T17:03:02.820Z,100217.41
2022-11-24T17:05:31.222Z,100220.59
2022-11-24T17:07:59.176Z,100220.89
2022-11-24T17:10:26.962Z,100224.23
2022-11-24T17:12:54.931Z,100225.69
2022-11-24T17:15:33.562Z,100226.64
2022-11-24T17:18:23.480Z,100231.44
2022-11-24T17:20:50.767Z,100232.75
2022-11-24T17:23:19.813Z,100235.11
2022-11-24T17:25:48.952Z,100236.19
2022-11-24T17:28:16.864Z,100239.33
2022-11-24T17:30:44.781Z,100245.30
2022-11-24T17:33:12.888Z,100243.98
2022-11-24T17:35:40.668Z,100247.03
2022-11-24T17:38:08.802Z,100251.91
2022-11-24T17:40:36.735Z,100254.94
2022-11-24T17:43:04.712Z,100259.52
2022-11-24T17:45:32.573Z,100264.50
2022-11-24T17:48:01.003Z,100265.55
2022-11-24T17:50:28.936Z,100263.23
2022-11-24T17:52:56.906Z,100265.84
2022-11-24T17:55:24.982Z,100264.17
2022-11-24T17:57:52.831Z,100266.78
2022-11-24T18:00:20.875Z,100267.84
2022-11-24T18:02:48.758Z,100270.94
2022-11-24T18:05:17.048Z,100273.09
2022-11-24T18:07:44.951Z,100275.95
2022-11-24T18:10:12.720Z,100272.72
2022-11-24T18:12:40.581Z,100276.71
2022-11-24T18:15:09.097Z,100278.86
2022-11-24T18:17:37.326Z,100282.66
2022-11-24T18:20:06.162Z,100285.10
2022-11-24T18:26:05.271Z,100287.59
2022-11-24T18:28:35.282Z,100286.71
2022-11-24T18:31:11.216Z,100286.04
2022-11-24T18:33:43.764Z,100288.73
2022-11-24T18:36:18.144Z,100290.41
2022-11-24T18:38:46.244Z,100294.02
2022-11-24T18:41:15.120Z,100294.48
2022-11-24T18:43:43.463Z,100293.50
2022-11-24T18:46:16.648Z,100293.59
2022-11-24T18:48:45.709Z,100291.45
2022-11-24T18:51:14.883Z,100293.33
2022-11-24T18:53:44.746Z,100290.15
2022-11-24T18:56:16.017Z,100284.94
2022-11-24T18:58:44.411Z,100286.07
2022-11-24T19:01:18.687Z,100287.69
2022-11-24T19:03:49.583Z,100286.17
2022-11-24T19:06:23.949Z,100285.48
2022-11-24T19:08:55.155Z,100283.84
2022-11-24T19:11:25.644Z,100289.45
2022-11-24T19:13:53.962Z,100289.26
2022-11-24T19:16:23.149Z,100293.55
2022-11-24T19:18:54.253Z,100295.36
2022-11-24T19:21:22.828Z,100291.73
2022-11-24T19:27:21.106Z,100291.70
2022-11-24T19:29:48.813Z,100291.00
2022-11-24T19:32:19.334Z,100292.36
2022-11-24T19:34:47.067Z,100296.96
2022-11-24T19:37:14.911Z,100301.39
2022-11-24T19:39:42.718Z,100300.59
2022-11-24T19:42:10.460Z,100304.14
2022-11-24T19:44:38.208Z,100304.86
2022-11-24T19:47:05.967Z,100305.48
2022-11-24T19:49:33.684Z,100303.75
2022-11-24T19:52:01.737Z,100303.91
2022-11-24T19:54:29.471Z,100303.82
2022-11-24T19:56:57.242Z,100304.89
2022-11-24T19:59:26.407Z,100307.94
2022-11-24T20:01:54.538Z,100306.60
2022-11-24T20:04:22.620Z,100307.80
2022-11-24T20:06:51.390Z,100310.51
2022-11-24T20:09:19.206Z,100310.77
2022-11-24T20:11:48.643Z,100311.86
2022-11-24T20:14:20.492Z,100310.81
2022-11-24T20:16:48.483Z,100316.08
2022-11-24T20:19:18.406Z,100318.60
2022-11-24T20:21:49.210Z,100321.56
2022-11-24T20:27:48.039Z,100327.57
2022-11-24T20:30:15.939Z,100333.14
2022-11-24T20:32:43.789Z,100328.47
2022-11-24T20:35:17.879Z,100338.08
2022-11-24T20:37:46.366Z,100337.29
2022-11-24T20:40:14.259Z,100337.25
2022-11-24T20:42:41.973Z,100339.62
2022-11-24T20:45:09.762Z,100343.17
2022-11-24T20:47:37.555Z,100338.02
2022-11-24T20:50:05.788Z,100337.33
2022-11-24T20:52:33.787Z,100341.56
2022-11-24T20:55:04.008Z,100342.81
2022-11-24T20:57:31.710Z,100345.95
2022-11-24T20:59:59.443Z,100352.05
2022-11-24T21:02:27.239Z,100357.37
2022-11-24T21:04:55.176Z,100360.41
2022-11-24T21:07:23.541Z,100363.67
2022-11-24T21:09:51.343Z,100364.11
2022-11-24T21:12:19.043Z,100368.02
2022-11-24T21:14:46.816Z,100367.85
2022-11-24T21:17:14.821Z,100371.44
2022-11-24T21:19:42.704Z,100372.60
2022-11-24T21:22:10.447Z,100370.49
2022-11-24T21:24:38.214Z,100374.14
2022-11-24T21:27:05.921Z,100375.20
2022-11-24T21:29:33.599Z,100379.73
2022-11-24T21:32:01.418Z,100381.79
2022-11-24T21:34:29.349Z,100384.94
2022-11-24T21:36:57.273Z,100385.64
2022-11-24T21:39:25.139Z,100388.05
2022-11-24T21:41:52.921Z,100387.88
2022-11-24T21:44:20.699Z,100390.23
2022-11-24T21:46:54.351Z,100388.97
2022-11-24T21:49:23.605Z,100390.33
2022-11-24T21:51:55.443Z,100391.23
2022-11-24T21:54:23.694Z,100393.49
2022-11-24T21:56:53.299Z,100393.66
2022-11-24T21:59:22.021Z,100388.90
2022-11-24T22:01:49.820Z,100393.83
2022-11-24T22:04:17.652Z,100389.89
2022-11-24T22:06:45.380Z,100388.48
2022-11-24T22:09:17.733Z,100391.63
2022-11-24T22:11:49.284Z,100392.23
2022-11-24T22:14:17.341Z,100396.39
2022-11-24T22:16:45.213Z,100398.80
2022-11-24T22:19:12.995Z,100399.33
2022-11-24T22:21:41.557Z,100402.88
2022-11-24T22:24:09.361Z,100402.51
2022-11-24T22:26:37.153Z,100398.02
2022-11-24T22:29:05.255Z,100393.02
2022-11-24T22:31:33.193Z,100391.27
2022-11-24T22:34:01.460Z,100400.05
2022-11-24T22:36:30.601Z,100400.36
2022-11-24T22:39:03.671Z,100405.32
2022-11-24T22:41:35.465Z,100405.64
2022-11-24T22:44:04.178Z,100412.73
2022-11-24T22:46:32.403Z,100417.05
2022-11-24T22:49:01.544Z,100414.57
2022-11-24T22:51:34.602Z,100417.17
2022-11-24T22:54:04.275Z,100415.45
2022-11-24T22:56:33.522Z,100415.69
2022-11-24T22:59:02.270Z,100416.30
2022-11-24T23:01:31.437Z,100419.95
2022-11-24T23:03:59.579Z,100426.44
2022-11-24T23:06:30.686Z,100433.75
2022-11-24T23:09:00.119Z,100434.94
2022-11-24T23:11:37.231Z,100429.93
2022-11-24T23:14:08.498Z,100425.06
2022-11-24T23:16:36.356Z,100424.49
2022-11-24T23:19:04.417Z,100423.65
2022-11-24T23:21:34.969Z,100429.71
2022-11-24T23:24:04.699Z,100426.42
2022-11-24T23:26:34.066Z,100431.23
2022-11-24T23:29:02.753Z,100429.00
2022-11-24T23:31:31.127Z,100424.70
2022-11-24T23:34:01.260Z,100415.81
2022-11-24T23:36:30.404Z,100416.83
2022-11-24T23:39:06.459Z,100412.97
2022-11-24T23:41:34.783Z,100418.35
2022-11-24T23:44:02.557Z,100418.27
2022-11-24T23:46:30.838Z,100414.50
2022-11-24T23:48:58.715Z,100413.14
2022-11-24T23:51:29.526Z,100414.70
2022-11-24T23:53:58.331Z,100413.41
2022-11-24T23:56:29.329Z,100416.56
2022-11-24T23:58:57.087Z,100418.67
